sensor_id;sensor_type;location;lat;lon;timestamp;pressure;altitude;pressure_sealevel;temperature;humidity
82379;BME280;72008;48.140;11.614;2024-01-06T00:00:09;94208.19;;;7.44;86.10
82379;BME280;72008;48.140;11.614;2024-01-06T00:01:16;94213.63;;;7.44;85.82
82379;BME280;72008;48.140;11.614;2024-01-06T00:02:16;94207.34;;;7.40;84.72
82379;BME280;72008;48.140;11.614;2024-01-06T00:03:17;94210.06;;;7.40;85.24
82379;BME280;72008;48.140;11.614;2024-01-06T00:04:17;94215.91;;;7.42;85.54
82379;BME280;72008;48.140;11.614;2024-01-06T00:05:17;94210.13;;;7.43;85.90
82379;BME280;72008;48.140;11.614;2024-01-06T00:06:23;94208.63;;;7.30;83.24
82379;BME280;72008;48.140;11.614;2024-01-06T00:07:24;94211.72;;;7.28;86.02
82379;BME280;72008;48.140;11.614;2024-01-06T00:08:24;94213.28;;;7.29;85.28
82379;BME280;72008;48.140;11.614;2024-01-06T00:09:25;94216.03;;;7.29;84.37
82379;BME280;72008;48.140;11.614;2024-01-06T00:10:25;94216.66;;;7.23;84.54
82379;BME280;72008;48.140;11.614;2024-01-06T00:11:26;94213.41;;;7.17;83.95
82379;BME280;72008;48.140;11.614;2024-01-06T00:12:26;94212.69;;;7.20;86.46
82379;BME280;72008;48.140;11.614;2024-01-06T00:13:27;94210.75;;;7.21;84.58
82379;BME280;72008;48.140;11.614;2024-01-06T00:14:27;94209.00;;;7.28;86.46
82379;BME280;72008;48.140;11.614;2024-01-06T00:15:27;94215.09;;;7.22;84.67
82379;BME280;72008;48.140;11.614;2024-01-06T00:16:28;94200.75;;;7.25;86.27
82379;BME280;72008;48.140;11.614;2024-01-06T00:17:28;94201.88;;;7.24;85.88
82379;BME280;72008;48.140;11.614;2024-01-06T00:18:29;94210.56;;;7.29;86.04
82379;BME280;72008;48.140;11.614;2024-01-06T00:19:29;94202.78;;;7.28;86.13
82379;BME280;72008;48.140;11.614;2024-01-06T00:20:29;94204.09;;;7.34;86.46
82379;BME280;72008;48.140;11.614;2024-01-06T00:21:30;94206.22;;;7.25;84.59
82379;BME280;72008;48.140;11.614;2024-01-06T00:22:30;94203.22;;;7.14;83.75
82379;BME280;72008;48.140;11.614;2024-01-06T00:23:31;94203.81;;;7.23;86.93
82379;BME280;72008;48.140;11.614;2024-01-06T00:24:31;94205.41;;;7.24;85.56
82379;BME280;72008;48.140;11.614;2024-01-06T00:25:31;94201.38;;;7.18;85.29
82379;BME280;72008;48.140;11.614;2024-01-06T00:26:32;94203.81;;;7.23;86.02
82379;BME280;72008;48.140;11.614;2024-01-06T00:27:32;94193.72;;;7.24;86.04
82379;BME280;72008;48.140;11.614;2024-01-06T00:28:33;94195.41;;;7.28;86.42
82379;BME280;72008;48.140;11.614;2024-01-06T00:29:33;94197.84;;;7.34;86.92
82379;BME280;72008;48.140;11.614;2024-01-06T00:30:33;94195.56;;;7.36;87.06
82379;BME280;72008;48.140;11.614;2024-01-06T00:31:34;94198.97;;;7.33;86.32
82379;BME280;72008;48.140;11.614;2024-01-06T00:32:34;94205.50;;;7.28;84.17
82379;BME280;72008;48.140;11.614;2024-01-06T00:33:35;94202.84;;;7.32;85.45
82379;BME280;72008;48.140;11.614;2024-01-06T00:34:35;94199.44;;;7.35;86.33
82379;BME280;72008;48.140;11.614;2024-01-06T00:35:35;94197.03;;;7.33;85.57
82379;BME280;72008;48.140;11.614;2024-01-06T00:36:36;94196.00;;;7.38;87.10
82379;BME280;72008;48.140;11.614;2024-01-06T00:37:36;94197.84;;;7.34;85.71
82379;BME280;72008;48.140;11.614;2024-01-06T00:38:37;94199.88;;;7.37;86.79
82379;BME280;72008;48.140;11.614;2024-01-06T00:39:37;94197.03;;;7.33;86.09
82379;BME280;72008;48.140;11.614;2024-01-06T00:40:38;94192.03;;;7.35;86.99
82379;BME280;72008;48.140;11.614;2024-01-06T00:41:38;94198.72;;;7.38;85.76
82379;BME280;72008;48.140;11.614;2024-01-06T00:42:38;94197.56;;;7.39;87.30
82379;BME280;72008;48.140;11.614;2024-01-06T00:43:39;94198.34;;;7.39;86.34
82379;BME280;72008;48.140;11.614;2024-01-06T00:44:39;94197.22;;;7.40;86.98
82379;BME280;72008;48.140;11.614;2024-01-06T00:45:40;94195.31;;;7.25;83.97
82379;BME280;72008;48.140;11.614;2024-01-06T00:46:40;94199.63;;;7.26;86.58
82379;BME280;72008;48.140;11.614;2024-01-06T00:47:40;94193.81;;;7.27;85.26
82379;BME280;72008;48.140;11.614;2024-01-06T00:48:41;94194.69;;;7.32;85.41
82379;BME280;72008;48.140;11.614;2024-01-06T00:49:42;94196.34;;;7.36;86.76
82379;BME280;72008;48.140;11.614;2024-01-06T00:50:42;94190.81;;;7.33;86.19
82379;BME280;72008;48.140;11.614;2024-01-06T00:51:43;94198.13;;;7.28;86.14
82379;BME280;72008;48.140;11.614;2024-01-06T00:52:43;94196.09;;;7.25;83.57
82379;BME280;72008;48.140;11.614;2024-01-06T00:53:43;94198.03;;;7.25;85.74
82379;BME280;72008;48.140;11.614;2024-01-06T00:54:44;94199.34;;;7.31;86.70
82379;BME280;72008;48.140;11.614;2024-01-06T00:55:44;94195.13;;;7.34;85.92
82379;BME280;72008;48.140;11.614;2024-01-06T00:56:44;94193.53;;;7.33;86.75
82379;BME280;72008;48.140;11.614;2024-01-06T00:57:45;94189.31;;;7.35;87.12
82379;BME280;72008;48.140;11.614;2024-01-06T00:58:45;94191.59;;;7.33;85.87
82379;BME280;72008;48.140;11.614;2024-01-06T00:59:46;94192.59;;;7.25;84.65
82379;BME280;72008;48.140;11.614;2024-01-06T01:00:46;94188.34;;;7.27;84.77
82379;BME280;72008;48.140;11.614;2024-01-06T01:01:46;94185.38;;;7.33;85.77
82379;BME280;72008;48.140;11.614;2024-01-06T01:02:47;94185.03;;;7.34;86.06
82379;BME280;72008;48.140;11.614;2024-01-06T01:03:47;94188.09;;;7.33;85.77
82379;BME280;72008;48.140;11.614;2024-01-06T01:04:48;94192.41;;;7.34;85.43
82379;BME280;72008;48.140;11.614;2024-01-06T01:05:48;94189.69;;;7.18;83.62
82379;BME280;72008;48.140;11.614;2024-01-06T01:06:49;94199.34;;;7.15;83.98
82379;BME280;72008;48.140;11.614;2024-01-06T01:07:49;94191.72;;;7.21;86.49
82379;BME280;72008;48.140;11.614;2024-01-06T01:08:49;94189.00;;;7.21;84.38
82379;BME280;72008;48.140;11.614;2024-01-06T01:09:50;94197.59;;;7.23;86.22
82379;BME280;72008;48.140;11.614;2024-01-06T01:10:50;94195.41;;;7.28;87.49
82379;BME280;72008;48.140;11.614;2024-01-06T01:11:51;94198.56;;;7.31;86.79
82379;BME280;72008;48.140;11.614;2024-01-06T01:12:51;94194.69;;;7.32;86.52
82379;BME280;72008;48.140;11.614;2024-01-06T01:13:51;94199.09;;;7.20;84.83
82379;BME280;72008;48.140;11.614;2024-01-06T01:14:52;94191.97;;;7.16;85.78
82379;BME280;72008;48.140;11.614;2024-01-06T01:15:53;94197.88;;;7.02;85.21
82379;BME280;72008;48.140;11.614;2024-01-06T01:16:53;94198.38;;;6.92;84.62
82379;BME280;72008;48.140;11.614;2024-01-06T01:17:53;94201.47;;;6.90;86.00
82379;BME280;72008;48.140;11.614;2024-01-06T01:18:54;94198.94;;;6.81;84.83
82379;BME280;72008;48.140;11.614;2024-01-06T01:19:55;94198.22;;;6.84;85.71
82379;BME280;72008;48.140;11.614;2024-01-06T01:20:55;94200.06;;;6.96;86.34
82379;BME280;72008;48.140;11.614;2024-01-06T01:21:55;94189.09;;;6.93;86.26
82379;BME280;72008;48.140;11.614;2024-01-06T01:22:56;94193.06;;;6.95;87.28
82379;BME280;72008;48.140;11.614;2024-01-06T01:23:56;94198.59;;;6.99;84.26
82379;BME280;72008;48.140;11.614;2024-01-06T01:24:57;94196.97;;;6.98;84.67
82379;BME280;72008;48.140;11.614;2024-01-06T01:25:58;94198.41;;;7.07;86.57
82379;BME280;72008;48.140;11.614;2024-01-06T01:26:59;94204.44;;;7.17;88.08
82379;BME280;72008;48.140;11.614;2024-01-06T01:27:59;94199.09;;;7.20;87.74
82379;BME280;72008;48.140;11.614;2024-01-06T01:28:59;94195.06;;;7.14;84.99
82379;BME280;72008;48.140;11.614;2024-01-06T01:30:03;94193.50;;;7.13;84.22
82379;BME280;72008;48.140;11.614;2024-01-06T01:31:04;94194.34;;;7.17;85.98
82379;BME280;72008;48.140;11.614;2024-01-06T01:32:05;94198.66;;;7.18;86.36
82379;BME280;72008;48.140;11.614;2024-01-06T01:33:05;94199.88;;;7.21;84.49
82379;BME280;72008;48.140;11.614;2024-01-06T01:34:07;94201.56;;;7.25;84.97
82379;BME280;72008;48.140;11.614;2024-01-06T01:35:08;94200.66;;;7.21;84.82
82379;BME280;72008;48.140;11.614;2024-01-06T01:36:08;94207.34;;;7.24;86.41
82379;BME280;72008;48.140;11.614;2024-01-06T01:37:33;94205.31;;;7.21;86.09
82379;BME280;72008;48.140;11.614;2024-01-06T01:38:33;94205.06;;;7.10;84.01
82379;BME280;72008;48.140;11.614;2024-01-06T01:39:33;94205.34;;;7.05;85.89
82379;BME280;72008;48.140;11.614;2024-01-06T01:40:34;94206.91;;;7.06;86.09
82379;BME280;72008;48.140;11.614;2024-01-06T01:41:34;94200.41;;;7.11;86.91
82379;BME280;72008;48.140;11.614;2024-01-06T01:42:35;94206.72;;;7.15;87.21
82379;BME280;72008;48.140;11.614;2024-01-06T01:43:38;94206.72;;;7.15;84.83
82379;BME280;72008;48.140;11.614;2024-01-06T01:44:53;94207.50;;;7.15;86.56
82379;BME280;72008;48.140;11.614;2024-01-06T01:45:54;94202.78;;;7.12;86.14
82379;BME280;72008;48.140;11.614;2024-01-06T01:46:55;94204.38;;;7.13;86.85
82379;BME280;72008;48.140;11.614;2024-01-06T01:47:57;94206.38;;;7.16;87.53
82379;BME280;72008;48.140;11.614;2024-01-06T01:49:00;94206.81;;;7.18;87.13
82379;BME280;72008;48.140;11.614;2024-01-06T01:50:03;94210.22;;;7.15;86.68
82379;BME280;72008;48.140;11.614;2024-01-06T01:51:03;94213.31;;;7.14;84.96
82379;BME280;72008;48.140;11.614;2024-01-06T01:52:04;94221.56;;;7.17;84.24
82379;BME280;72008;48.140;11.614;2024-01-06T01:53:04;94213.56;;;7.24;86.79
82379;BME280;72008;48.140;11.614;2024-01-06T01:54:06;94219.63;;;7.18;86.00
82379;BME280;72008;48.140;11.614;2024-01-06T01:55:06;94216.31;;;7.09;84.80
82379;BME280;72008;48.140;11.614;2024-01-06T01:56:07;94210.53;;;7.10;86.97
82379;BME280;72008;48.140;11.614;2024-01-06T01:57:08;94211.13;;;7.03;85.48
82379;BME280;72008;48.140;11.614;2024-01-06T01:58:12;94214.91;;;6.99;84.83
82379;BME280;72008;48.140;11.614;2024-01-06T01:59:18;94214.13;;;6.98;85.73
82379;BME280;72008;48.140;11.614;2024-01-06T02:00:20;94216.84;;;6.98;86.10
82379;BME280;72008;48.140;11.614;2024-01-06T02:01:20;94215.31;;;7.01;86.44
82379;BME280;72008;48.140;11.614;2024-01-06T02:02:21;94215.78;;;7.03;86.13
82379;BME280;72008;48.140;11.614;2024-01-06T02:03:22;94208.56;;;6.95;83.80
82379;BME280;72008;48.140;11.614;2024-01-06T02:04:24;94211.13;;;6.88;84.90
82379;BME280;72008;48.140;11.614;2024-01-06T02:05:24;94214.19;;;6.70;83.22
82379;BME280;72008;48.140;11.614;2024-01-06T02:06:25;94212.84;;;6.48;83.29
82379;BME280;72008;48.140;11.614;2024-01-06T02:07:25;94218.44;;;6.55;84.68
82379;BME280;72008;48.140;11.614;2024-01-06T02:08:26;94214.06;;;6.51;84.61
82379;BME280;72008;48.140;11.614;2024-01-06T02:09:26;94216.53;;;6.56;84.43
82379;BME280;72008;48.140;11.614;2024-01-06T02:10:27;94218.53;;;6.59;82.65
82379;BME280;72008;48.140;11.614;2024-01-06T02:11:27;94222.16;;;6.63;86.06
82379;BME280;72008;48.140;11.614;2024-01-06T02:12:28;94214.88;;;6.51;83.91
82379;BME280;72008;48.140;11.614;2024-01-06T02:13:35;94220.16;;;6.76;87.16
82379;BME280;72008;48.140;11.614;2024-01-06T02:14:35;94213.75;;;6.84;87.69
82379;BME280;72008;48.140;11.614;2024-01-06T02:15:36;94219.38;;;6.75;85.66
82379;BME280;72008;48.140;11.614;2024-01-06T02:16:46;94223.03;;;6.83;87.72
82379;BME280;72008;48.140;11.614;2024-01-06T02:17:46;94221.66;;;6.89;87.65
82379;BME280;72008;48.140;11.614;2024-01-06T02:18:47;94218.59;;;6.91;85.50
82379;BME280;72008;48.140;11.614;2024-01-06T02:19:48;94222.09;;;6.91;87.95
82379;BME280;72008;48.140;11.614;2024-01-06T02:20:50;94213.84;;;6.88;85.10
82379;BME280;72008;48.140;11.614;2024-01-06T02:21:54;94221.31;;;6.91;86.80
82379;BME280;72008;48.140;11.614;2024-01-06T02:22:55;94215.53;;;6.92;84.31
82379;BME280;72008;48.140;11.614;2024-01-06T02:23:55;94215.16;;;6.94;83.75
82379;BME280;72008;48.140;11.614;2024-01-06T02:24:56;94214.13;;;6.98;86.35
82379;BME280;72008;48.140;11.614;2024-01-06T02:26:00;94216.22;;;7.05;86.03
82379;BME280;72008;48.140;11.614;2024-01-06T02:27:01;94218.50;;;7.03;84.38
82379;BME280;72008;48.140;11.614;2024-01-06T02:28:01;94212.78;;;7.08;87.50
82379;BME280;72008;48.140;11.614;2024-01-06T02:29:01;94215.97;;;7.10;86.19
82379;BME280;72008;48.140;11.614;2024-01-06T02:30:02;94211.31;;;7.11;86.49
82379;BME280;72008;48.140;11.614;2024-01-06T02:31:11;94219.88;;;7.13;87.23
82379;BME280;72008;48.140;11.614;2024-01-06T02:32:12;94219.53;;;7.14;86.71
82379;BME280;72008;48.140;11.614;2024-01-06T02:33:14;94216.13;;;7.17;87.23
82379;BME280;72008;48.140;11.614;2024-01-06T02:34:14;94217.63;;;7.15;87.22
82379;BME280;72008;48.140;11.614;2024-01-06T02:35:15;94214.72;;;7.07;86.87
82379;BME280;72008;48.140;11.614;2024-01-06T02:36:15;94212.72;;;7.04;85.99
82379;BME280;72008;48.140;11.614;2024-01-06T02:37:15;94208.47;;;6.91;85.53
82379;BME280;72008;48.140;11.614;2024-01-06T02:38:16;94217.09;;;6.93;86.69
82379;BME280;72008;48.140;11.614;2024-01-06T02:39:16;94212.44;;;6.94;86.34
82379;BME280;72008;48.140;11.614;2024-01-06T02:40:17;94214.13;;;6.98;87.05
82379;BME280;72008;48.140;11.614;2024-01-06T02:41:17;94216.47;;;7.00;86.83
82379;BME280;72008;48.140;11.614;2024-01-06T02:42:17;94221.91;;;7.00;87.21
82379;BME280;72008;48.140;11.614;2024-01-06T02:43:18;94229.81;;;7.05;87.42
82379;BME280;72008;48.140;11.614;2024-01-06T02:44:18;94219.38;;;7.07;87.47
82379;BME280;72008;48.140;11.614;2024-01-06T02:45:19;94221.41;;;7.10;86.74
82379;BME280;72008;48.140;11.614;2024-01-06T02:46:19;94218.25;;;7.08;84.40
82379;BME280;72008;48.140;11.614;2024-01-06T02:47:20;94223.75;;;7.12;86.75
82379;BME280;72008;48.140;11.614;2024-01-06T02:48:20;94222.28;;;7.14;86.70
82379;BME280;72008;48.140;11.614;2024-01-06T02:49:20;94217.63;;;7.15;85.80
82379;BME280;72008;48.140;11.614;2024-01-06T02:50:21;94220.34;;;7.15;85.27
82379;BME280;72008;48.140;11.614;2024-01-06T02:51:24;94219.63;;;7.18;86.25
82379;BME280;72008;48.140;11.614;2024-01-06T02:52:25;94222.00;;;7.19;87.42
82379;BME280;72008;48.140;11.614;2024-01-06T02:53:25;94223.06;;;7.15;84.09
82379;BME280;72008;48.140;11.614;2024-01-06T02:54:26;94223.41;;;7.13;84.59
82379;BME280;72008;48.140;11.614;2024-01-06T02:55:26;94231.13;;;7.11;85.13
82379;BME280;72008;48.140;11.614;2024-01-06T02:56:26;94234.72;;;7.15;85.62
82379;BME280;72008;48.140;11.614;2024-01-06T02:57:29;94232.00;;;7.15;86.77
82379;BME280;72008;48.140;11.614;2024-01-06T02:58:29;94228.88;;;7.13;85.83
82379;BME280;72008;48.140;11.614;2024-01-06T02:59:30;94233.06;;;6.95;85.05
82379;BME280;72008;48.140;11.614;2024-01-06T03:01:08;94235.44;;;6.80;83.58
82379;BME280;72008;48.140;11.614;2024-01-06T03:02:09;94240.34;;;6.75;84.25
82379;BME280;72008;48.140;11.614;2024-01-06T03:03:09;94247.41;;;6.64;83.65
82379;BME280;72008;48.140;11.614;2024-01-06T03:04:09;94234.09;;;6.74;87.06
82379;BME280;72008;48.140;11.614;2024-01-06T03:05:11;94238.56;;;6.82;87.43
82379;BME280;72008;48.140;11.614;2024-01-06T03:06:12;94235.44;;;6.80;86.19
82379;BME280;72008;48.140;11.614;2024-01-06T03:07:12;94231.81;;;6.76;84.87
82379;BME280;72008;48.140;11.614;2024-01-06T03:08:13;94227.59;;;6.79;86.12
82379;BME280;72008;48.140;11.614;2024-01-06T03:09:13;94227.44;;;6.72;84.32
82379;BME280;72008;48.140;11.614;2024-01-06T03:10:13;94222.25;;;6.67;83.90
82379;BME280;72008;48.140;11.614;2024-01-06T03:11:14;94236.53;;;6.64;84.37
82379;BME280;72008;48.140;11.614;2024-01-06T03:12:14;94235.06;;;6.66;83.60
82379;BME280;72008;48.140;11.614;2024-01-06T03:13:15;94236.09;;;6.61;84.30
82379;BME280;72008;48.140;11.614;2024-01-06T03:14:17;94237.03;;;6.53;84.39
82379;BME280;72008;48.140;11.614;2024-01-06T03:15:17;94237.66;;;6.19;83.93
82379;BME280;72008;48.140;11.614;2024-01-06T03:16:18;94232.59;;;6.33;88.02
82379;BME280;72008;48.140;11.614;2024-01-06T03:17:18;94239.03;;;6.41;84.53
82379;BME280;72008;48.140;11.614;2024-01-06T03:18:18;94234.97;;;6.63;87.36
82379;BME280;72008;48.140;11.614;2024-01-06T03:19:19;94236.53;;;6.64;85.23
82379;BME280;72008;48.140;11.614;2024-01-06T03:20:19;94236.13;;;6.77;85.65
82379;BME280;72008;48.140;11.614;2024-01-06T03:21:20;94241.47;;;6.74;84.62
82379;BME280;72008;48.140;11.614;2024-01-06T03:22:20;94243.22;;;6.82;86.90
82379;BME280;72008;48.140;11.614;2024-01-06T03:23:21;94246.41;;;6.84;86.38
82379;BME280;72008;48.140;11.614;2024-01-06T03:24:23;94242.97;;;6.87;86.31
82379;BME280;72008;48.140;11.614;2024-01-06T03:25:23;94243.75;;;6.88;84.53
82379;BME280;72008;48.140;11.614;2024-01-06T03:26:24;94246.56;;;6.91;84.91
82379;BME280;72008;48.140;11.614;2024-01-06T03:27:24;94245.94;;;6.82;85.79
82379;BME280;72008;48.140;11.614;2024-01-06T03:28:25;94241.75;;;6.84;86.41
82379;BME280;72008;48.140;11.614;2024-01-06T03:29:25;94245.69;;;6.87;87.01
82379;BME280;72008;48.140;11.614;2024-01-06T03:30:25;94245.69;;;6.87;83.63
82379;BME280;72008;48.140;11.614;2024-01-06T03:31:26;94246.31;;;6.80;85.68
82379;BME280;72008;48.140;11.614;2024-01-06T03:32:26;94246.72;;;6.82;87.12
82379;BME280;72008;48.140;11.614;2024-01-06T03:33:27;94249.53;;;6.86;83.92
82379;BME280;72008;48.140;11.614;2024-01-06T03:34:27;94252.72;;;6.88;86.56
82379;BME280;72008;48.140;11.614;2024-01-06T03:35:28;94255.25;;;6.81;83.91
82379;BME280;72008;48.140;11.614;2024-01-06T03:36:38;94252.63;;;6.84;85.34
82379;BME280;72008;48.140;11.614;2024-01-06T03:37:38;94245.72;;;6.59;82.96
82379;BME280;72008;48.140;11.614;2024-01-06T03:38:39;94251.91;;;6.72;86.46
82379;BME280;72008;48.140;11.614;2024-01-06T03:39:39;94248.66;;;6.66;87.03
82379;BME280;72008;48.140;11.614;2024-01-06T03:40:39;94242.75;;;6.64;83.88
82379;BME280;72008;48.140;11.614;2024-01-06T03:41:40;94238.47;;;6.63;83.36
82379;BME280;72008;48.140;11.614;2024-01-06T03:42:43;94246.03;;;6.70;87.09
82379;BME280;72008;48.140;11.614;2024-01-06T03:43:44;94249.03;;;6.80;88.12
82379;BME280;72008;48.140;11.614;2024-01-06T03:44:44;94248.34;;;6.83;86.14
82379;BME280;72008;48.140;11.614;2024-01-06T03:45:44;94242.91;;;6.83;83.20
82379;BME280;72008;48.140;11.614;2024-01-06T03:46:45;94238.84;;;6.77;83.89
82379;BME280;72008;48.140;11.614;2024-01-06T03:47:45;94238.94;;;6.81;86.07
82379;BME280;72008;48.140;11.614;2024-01-06T03:48:46;94240.84;;;6.65;82.76
82379;BME280;72008;48.140;11.614;2024-01-06T03:49:46;94240.50;;;6.66;83.91
82379;BME280;72008;48.140;11.614;2024-01-06T03:50:46;94248.44;;;6.59;83.56
82379;BME280;72008;48.140;11.614;2024-01-06T03:51:47;94250.84;;;6.60;86.25
82379;BME280;72008;48.140;11.614;2024-01-06T03:52:47;94242.31;;;6.62;85.13
82379;BME280;72008;48.140;11.614;2024-01-06T03:53:48;94246.97;;;6.61;85.08
82379;BME280;72008;48.140;11.614;2024-01-06T03:54:48;94248.66;;;6.66;84.50
82379;BME280;72008;48.140;11.614;2024-01-06T03:55:48;94252.69;;;6.72;84.88
82379;BME280;72008;48.140;11.614;2024-01-06T03:56:49;94256.75;;;6.78;87.13
82379;BME280;72008;48.140;11.614;2024-01-06T03:57:49;94252.63;;;6.84;86.97
82379;BME280;72008;48.140;11.614;2024-01-06T03:58:50;94251.91;;;6.72;83.52
82379;BME280;72008;48.140;11.614;2024-01-06T03:59:50;94254.47;;;6.80;87.41
82379;BME280;72008;48.140;11.614;2024-01-06T04:01:00;94247.88;;;6.81;87.66
82379;BME280;72008;48.140;11.614;2024-01-06T04:02:01;94255.84;;;6.74;86.94
82379;BME280;72008;48.140;11.614;2024-01-06T04:03:01;94251.06;;;6.83;88.34
82379;BME280;72008;48.140;11.614;2024-01-06T04:04:05;94257.69;;;6.70;85.28
82379;BME280;72008;48.140;11.614;2024-01-06T04:05:06;94259.25;;;6.71;85.03
82379;BME280;72008;48.140;11.614;2024-01-06T04:06:07;94254.28;;;6.73;85.76
82379;BME280;72008;48.140;11.614;2024-01-06T04:07:07;94262.19;;;6.78;87.72
82379;BME280;72008;48.140;11.614;2024-01-06T04:08:08;94250.94;;;6.80;85.73
82379;BME280;72008;48.140;11.614;2024-01-06T04:09:08;94261.13;;;6.83;87.47
82379;BME280;72008;48.140;11.614;2024-01-06T04:10:09;94259.63;;;6.86;87.62
82379;BME280;72008;48.140;11.614;2024-01-06T04:11:09;94257.44;;;6.75;83.95
82379;BME280;72008;48.140;11.614;2024-01-06T04:12:09;94262.63;;;6.80;85.32
82379;BME280;72008;48.140;11.614;2024-01-06T04:13:11;94256.50;;;6.83;86.20
82379;BME280;72008;48.140;11.614;2024-01-06T04:14:11;94257.44;;;6.75;83.88
82379;BME280;72008;48.140;11.614;2024-01-06T04:15:12;94259.47;;;6.78;86.51
82379;BME280;72008;48.140;11.614;2024-01-06T04:16:40;94265.06;;;6.70;86.33
82379;BME280;72008;48.140;11.614;2024-01-06T04:17:41;94267.16;;;6.76;86.25
82379;BME280;72008;48.140;11.614;2024-01-06T04:18:41;94275.78;;;6.78;86.69
82379;BME280;72008;48.140;11.614;2024-01-06T04:19:41;94271.50;;;6.77;86.12
82379;BME280;72008;48.140;11.614;2024-01-06T04:20:42;94283.47;;;6.76;87.59
82379;BME280;72008;48.140;11.614;2024-01-06T04:21:42;94275.09;;;6.81;87.60
82379;BME280;72008;48.140;11.614;2024-01-06T04:22:43;94271.81;;;6.76;84.87
82379;BME280;72008;48.140;11.614;2024-01-06T04:23:43;94276.94;;;6.77;84.11
82379;BME280;72008;48.140;11.614;2024-01-06T04:24:44;94279.34;;;6.67;84.09
82379;BME280;72008;48.140;11.614;2024-01-06T04:25:44;94284.56;;;6.59;84.77
82379;BME280;72008;48.140;11.614;2024-01-06T04:26:44;94286.78;;;6.54;84.72
82379;BME280;72008;48.140;11.614;2024-01-06T04:27:45;94286.97;;;6.61;86.30
82379;BME280;72008;48.140;11.614;2024-01-06T04:28:45;94283.47;;;6.60;86.90
82379;BME280;72008;48.140;11.614;2024-01-06T04:29:46;94281.69;;;6.68;86.30
82379;BME280;72008;48.140;11.614;2024-01-06T04:30:46;94280.38;;;6.62;83.73
82379;BME280;72008;48.140;11.614;2024-01-06T04:31:47;94279.44;;;6.70;85.85
82379;BME280;72008;48.140;11.614;2024-01-06T04:32:47;94274.88;;;6.74;85.10
82379;BME280;72008;48.140;11.614;2024-01-06T04:33:47;94277.25;;;6.76;86.74
82379;BME280;72008;48.140;11.614;2024-01-06T04:34:48;94284.00;;;6.66;85.81
82379;BME280;72008;48.140;11.614;2024-01-06T04:35:49;94278.19;;;6.68;85.32
82379;BME280;72008;48.140;11.614;2024-01-06T04:36:49;94276.78;;;6.58;84.90
82379;BME280;72008;48.140;11.614;2024-01-06T04:37:49;94287.41;;;6.63;85.70
82379;BME280;72008;48.140;11.614;2024-01-06T04:38:50;94276.09;;;6.61;86.02
82379;BME280;72008;48.140;11.614;2024-01-06T04:39:50;94282.53;;;6.69;86.73
82379;BME280;72008;48.140;11.614;2024-01-06T04:40:51;94289.69;;;6.61;83.13
82379;BME280;72008;48.140;11.614;2024-01-06T04:41:51;94291.31;;;6.50;85.23
82379;BME280;72008;48.140;11.614;2024-01-06T04:42:51;94291.22;;;6.46;85.08
82379;BME280;72008;48.140;11.614;2024-01-06T04:43:52;94282.22;;;6.58;86.40
82379;BME280;72008;48.140;11.614;2024-01-06T04:44:52;94297.19;;;6.52;85.46
82379;BME280;72008;48.140;11.614;2024-01-06T04:45:53;94289.03;;;6.52;84.90
82379;BME280;72008;48.140;11.614;2024-01-06T04:46:53;94290.38;;;6.58;86.65
82379;BME280;72008;48.140;11.614;2024-01-06T04:47:54;94287.03;;;6.49;84.37
82379;BME280;72008;48.140;11.614;2024-01-06T04:48:54;94298.38;;;6.38;83.95
82379;BME280;72008;48.140;11.614;2024-01-06T04:49:55;94290.03;;;6.31;83.83
82379;BME280;72008;48.140;11.614;2024-01-06T04:50:55;94291.59;;;6.32;85.41
82379;BME280;72008;48.140;11.614;2024-01-06T04:51:56;94287.84;;;6.37;85.08
82379;BME280;72008;48.140;11.614;2024-01-06T04:52:57;94295.66;;;6.38;83.20
82379;BME280;72008;48.140;11.614;2024-01-06T04:53:57;94298.81;;;6.41;85.23
82379;BME280;72008;48.140;11.614;2024-01-06T04:54:57;94294.31;;;6.32;83.51
82379;BME280;72008;48.140;11.614;2024-01-06T04:55:58;94299.31;;;6.30;83.31
82379;BME280;72008;48.140;11.614;2024-01-06T04:56:58;94305.03;;;6.41;84.64
82379;BME280;72008;48.140;11.614;2024-01-06T04:57:59;94305.44;;;6.27;83.85
82379;BME280;72008;48.140;11.614;2024-01-06T04:59:00;94304.75;;;6.30;84.51
82379;BME280;72008;48.140;11.614;2024-01-06T05:00:00;94303.06;;;6.26;84.36
82379;BME280;72008;48.140;11.614;2024-01-06T05:01:01;94306.81;;;6.21;84.46
82379;BME280;72008;48.140;11.614;2024-01-06T05:02:02;94311.75;;;6.31;86.55
82379;BME280;72008;48.140;11.614;2024-01-06T05:03:03;94308.69;;;6.33;86.28
82379;BME280;72008;48.140;11.614;2024-01-06T05:04:04;94310.47;;;6.41;86.02
82379;BME280;72008;48.140;11.614;2024-01-06T05:05:04;94316.00;;;6.45;86.13
82379;BME280;72008;48.140;11.614;2024-01-06T05:06:05;94311.84;;;6.35;86.26
82379;BME280;72008;48.140;11.614;2024-01-06T05:07:05;94309.75;;;6.28;86.30
82379;BME280;72008;48.140;11.614;2024-01-06T05:08:05;94308.69;;;6.33;84.50
82379;BME280;72008;48.140;11.614;2024-01-06T05:09:06;94317.53;;;6.42;87.13
82379;BME280;72008;48.140;11.614;2024-01-06T05:10:07;94314.09;;;6.45;84.72
82379;BME280;72008;48.140;11.614;2024-01-06T05:11:07;94318.84;;;6.48;84.14
82379;BME280;72008;48.140;11.614;2024-01-06T05:12:08;94313.97;;;6.54;84.57
82379;BME280;72008;48.140;11.614;2024-01-06T05:13:08;94311.94;;;6.51;86.03
82379;BME280;72008;48.140;11.614;2024-01-06T05:14:09;94310.38;;;6.37;85.33
82379;BME280;72008;48.140;11.614;2024-01-06T05:15:09;94312.28;;;6.49;87.38
82379;BME280;72008;48.140;11.614;2024-01-06T05:16:10;94306.66;;;6.42;83.20
82379;BME280;72008;48.140;11.614;2024-01-06T05:17:10;94314.41;;;6.15;83.29
82379;BME280;72008;48.140;11.614;2024-01-06T05:18:10;94320.94;;;6.27;87.39
82379;BME280;72008;48.140;11.614;2024-01-06T05:19:11;94318.53;;;6.37;85.26
82379;BME280;72008;48.140;11.614;2024-01-06T05:20:11;94325.59;;;6.26;82.92
82379;BME280;72008;48.140;11.614;2024-01-06T05:21:12;94328.25;;;6.38;86.31
82379;BME280;72008;48.140;11.614;2024-01-06T05:22:12;94323.66;;;6.39;85.04
82379;BME280;72008;48.140;11.614;2024-01-06T05:23:13;94331.34;;;6.37;85.14